DTTZ/TOE METAR and TAF weather

Enter ICAO airport designator
Station Type Date Time Source
DTTZ METAR 2020/06/03 23:00 UTC NOAA

DTTZ 032300Z 09019KT 8000 SCT033 26/13 Q1008 NOSIG


Station Type Date Time Source
DTTZ Decoded METAR 2020/06/03 23:00 UTC NOAA

Tozeur, Tunisia (DTTZ) 33-55N 008-06E 93M
Jun 03, 2020 - 07:00 PM EDT / 2020.06.03 2300 UTC
Wind: from the E (090 degrees) at 22 MPH (19 KT):0
Visibility: 4 mile(s):0
Sky conditions: partly cloudy
Temperature: 78 F (26 C)
Dew Point: 55 F (13 C)
Relative Humidity: 44%
Pressure (altimeter): 29.77 in. Hg (1008 hPa)
ob: DTTZ 032300Z 09019KT 8000 SCT033 26/13 Q1008 NOSIG
cycle: 23

Station Type Date Time Source
DTTZ TAF 2020/06/03 18:42 UTC NOAA

TAF DTTZ 031700Z 0318/0418 11010KT 8000 SCT033
TEMPO 0321/0407 09020G30KT

Example: see airport list